Time;durP1;ratioP1;P1;durP2;ratioP2;P2;SDS_P1;SDS_P2;PMS_P1;PMS_P2;Temp;Humidity;BMP_temperature;BMP_pressure;BME280_temperature;BME280_humidity;BME280_pressure;Samples;Min_cycle;Max_cycle;Signal;HPM_P1;HPM_P2
2023/07/18 14:57:01;;;;;;;3.60;1.20;;;;;;;;;;5120094;27;20393;-74
2023/07/18 14:59:29;;;;;;;4.10;1.25;;;;;;;;;;5117318;27;20048;-73
2023/07/18 15:01:56;;;;;;;3.97;1.40;;;;;;;;;;5115310;27;20040;-74
2023/07/18 15:04:24;;;;;;;3.67;1.35;;;;;;;;;;5117184;27;20044;-73
2023/07/18 15:06:53;;;;;;;5.20;1.40;;;;;;;;;;5121038;27;20044;-74
2023/07/18 15:09:20;;;;;;;5.30;1.25;;;;;;;;;;5116340;27;20492;-74
2023/07/18 15:11:48;;;;;;;4.72;1.55;;;;;;;;;;5129256;27;20054;-71
2023/07/18 15:14:15;;;;;;;4.63;1.20;;;;;;;;;;5112929;27;20401;-71
2023/07/18 15:16:43;;;;;;;4.78;1.45;;;;;;;;;;5129944;27;20063;-73
2023/07/18 15:19:10;;;;;;;5.40;1.50;;;;;;;;;;5121068;27;20082;-70
2023/07/18 15:21:39;;;;;;;3.78;1.50;;;;;;;;;;5113629;27;20047;-73
2023/07/18 15:24:06;;;;;;;4.35;1.35;;;;;;;;;;5114801;27;20075;-71
2023/07/18 15:26:33;;;;;;;5.00;1.52;;;;;;;;;;5120148;27;20044;-73
2023/07/18 15:29:01;;;;;;;5.80;1.60;;;;;;;;;;5120107;27;20047;-75
2023/07/18 15:31:29;;;;;;;4.18;1.50;;;;;;;;;;5122098;27;20048;-74
2023/07/18 15:33:56;;;;;;;2.58;1.30;;;;;;;;;;5120632;27;20149;-73
2023/07/18 15:36:23;;;;;;;6.72;1.60;;;;;;;;;;5120920;27;20055;-73
2023/07/18 15:38:50;;;;;;;6.32;1.30;;;;;;;;;;5116246;27;20040;-72
2023/07/18 15:41:18;;;;;;;2.53;1.38;;;;;;;;;;5112588;27;20036;-73
2023/07/18 15:43:45;;;;;;;6.55;1.48;;;;;;;;;;5117590;27;20076;-73
2023/07/18 15:46:12;;;;;;;5.13;1.65;;;;;;;;;;5128444;27;20058;-74
2023/07/18 15:48:44;;;;;;;3.75;1.30;;;;;;;;;;5119116;27;20219;-73
2023/07/18 15:51:11;;;;;;;4.90;1.38;;;;;;;;;;5132339;27;20059;-73
2023/07/18 15:53:38;;;;;;;3.88;1.40;;;;;;;;;;5130687;27;21299;-73
2023/07/18 15:56:06;;;;;;;2.78;1.63;;;;;;;;;;5134264;27;20075;-73
2023/07/18 15:58:33;;;;;;;3.72;1.35;;;;;;;;;;5137299;27;20043;-74
2023/07/18 16:01:00;;;;;;;2.63;1.30;;;;;;;;;;5129815;27;20090;-73
2023/07/18 16:03:27;;;;;;;3.72;1.73;;;;;;;;;;5134697;27;20051;-73
2023/07/18 16:05:55;;;;;;;5.60;1.58;;;;;;;;;;5136909;27;20143;-73
2023/07/18 16:08:22;;;;;;;4.22;1.65;;;;;;;;;;5120197;27;20520;-73
2023/07/18 16:10:50;;;;;;;4.82;1.50;;;;;;;;;;5126015;27;20052;-72
2023/07/18 16:13:17;;;;;;;4.18;1.50;;;;;;;;;;5123791;27;20763;-73
2023/07/18 16:15:44;;;;;;;3.35;1.52;;;;;;;;;;5125312;27;20039;-73
2023/07/18 16:18:11;;;;;;;4.03;1.40;;;;;;;;;;5124974;27;20056;-72
2023/07/18 16:20:39;;;;;;;2.38;1.30;;;;;;;;;;5121751;27;20942;-73
2023/07/18 16:23:06;;;;;;;4.38;1.67;;;;;;;;;;5129059;27;20078;-72
2023/07/18 16:25:33;;;;;;;7.63;1.60;;;;;;;;;;5118630;27;20105;-73
2023/07/18 16:28:01;;;;;;;4.15;1.55;;;;;;;;;;5122657;27;20052;-73
2023/07/18 16:30:28;;;;;;;4.28;1.60;;;;;;;;;;5117788;27;20044;-73
2023/07/18 16:32:55;;;;;;;4.15;1.70;;;;;;;;;;5119453;27;20875;-73
2023/07/18 16:35:23;;;;;;;2.20;1.20;;;;;;;;;;5122310;27;20048;-73
2023/07/18 16:37:50;;;;;;;4.22;1.20;;;;;;;;;;5124200;27;20853;-73
2023/07/18 16:40:17;;;;;;;3.80;1.50;;;;;;;;;;5122027;27;20132;-73
2023/07/18 16:42:44;;;;;;;5.57;1.65;;;;;;;;;;5096842;27;20050;-73
2023/07/18 16:45:11;;;;;;;3.13;1.63;;;;;;;;;;5115054;27;20562;-72
2023/07/18 16:47:39;;;;;;;5.15;1.40;;;;;;;;;;5117361;27;20051;-72
2023/07/18 16:50:06;;;;;;;3.67;1.30;;;;;;;;;;5121777;27;20078;-73
2023/07/18 16:52:33;;;;;;;5.38;1.58;;;;;;;;;;5122276;27;20877;-72
2023/07/18 16:55:01;;;;;;;3.47;1.58;;;;;;;;;;5123352;27;20052;-72
2023/07/18 16:57:28;;;;;;;1.90;1.30;;;;;;;;;;5112953;27;20048;-72
2023/07/18 16:59:55;;;;;;;5.20;1.63;;;;;;;;;;5123744;27;20036;-73
2023/07/18 17:02:22;;;;;;;6.38;1.90;;;;;;;;;;5120428;27;20512;-73
2023/07/18 17:04:50;;;;;;;3.75;1.60;;;;;;;;;;5122642;27;20055;-72
2023/07/18 17:07:17;;;;;;;6.30;1.90;;;;;;;;;;5125687;27;20634;-72
2023/07/18 17:09:45;;;;;;;3.28;1.30;;;;;;;;;;5124351;27;21146;-72
2023/07/18 17:12:12;;;;;;;3.05;1.40;;;;;;;;;;5124089;27;20046;-72
2023/07/18 17:14:39;;;;;;;4.60;1.60;;;;;;;;;;5119136;27;20048;-73
2023/07/18 17:17:07;;;;;;;7.85;1.50;;;;;;;;;;5119100;27;20529;-73
2023/07/18 17:19:34;;;;;;;4.65;1.77;;;;;;;;;;5120601;27;20051;-72
2023/07/18 17:22:18;;;;;;;5.47;1.33;;;;;;;;;;5126130;27;20511;-72
2023/07/18 17:24:46;;;;;;;5.30;1.40;;;;;;;;;;5119286;27;20044;-72
2023/07/18 17:27:13;;;;;;;11.20;1.70;;;;;;;;;;5116640;27;20146;-72
2023/07/18 17:29:40;;;;;;;6.95;1.55;;;;;;;;;;5118074;27;20075;-72
2023/07/18 17:32:07;;;;;;;3.63;1.38;;;;;;;;;;5119337;27;20036;-72
2023/07/18 17:34:35;;;;;;;4.40;1.83;;;;;;;;;;5117349;27;20086;-73
2023/07/18 17:37:06;;;;;;;4.25;1.30;;;;;;;;;;5121020;27;20499;-73
2023/07/18 17:39:34;;;;;;;7.22;1.50;;;;;;;;;;5102100;27;20109;-72
2023/07/18 17:42:02;;;;;;;5.55;1.42;;;;;;;;;;5115849;27;20053;-73
2023/07/18 17:44:32;;;;;;;3.83;1.48;;;;;;;;;;5122438;27;20049;-73
2023/07/18 17:46:59;;;;;;;5.18;1.50;;;;;;;;;;5119185;27;20134;-72
2023/07/18 17:49:26;;;;;;;5.95;1.50;;;;;;;;;;5125930;27;20048;-72
2023/07/18 17:51:54;;;;;;;2.47;1.10;;;;;;;;;;5120975;27;21071;-72
2023/07/18 17:54:21;;;;;;;4.63;1.58;;;;;;;;;;5120317;27;20047;-72
2023/07/18 17:56:48;;;;;;;12.40;3.28;;;;;;;;;;5116244;27;20044;-72
2023/07/18 17:59:15;;;;;;;8.63;2.00;;;;;;;;;;5128606;27;20130;-72
2023/07/18 18:01:43;;;;;;;6.10;1.60;;;;;;;;;;5112648;27;20051;-72
2023/07/18 18:04:11;;;;;;;4.90;1.42;;;;;;;;;;5123461;27;20067;-72
2023/07/18 18:06:38;;;;;;;5.22;1.38;;;;;;;;;;5122799;27;20047;-72
2023/07/18 18:09:06;;;;;;;3.92;1.20;;;;;;;;;;5099716;27;20900;-73
2023/07/18 18:11:34;;;;;;;4.13;1.35;;;;;;;;;;5105297;27;20056;-72
2023/07/18 18:14:01;;;;;;;3.65;1.50;;;;;;;;;;5119984;27;20075;-72
2023/07/18 18:16:28;;;;;;;4.35;1.20;;;;;;;;;;5121036;27;20100;-72
2023/07/18 18:18:55;;;;;;;2.78;1.02;;;;;;;;;;5115099;27;20503;-73
2023/07/18 18:21:25;;;;;;;9.57;1.30;;;;;;;;;;5117277;27;20048;-71
2023/07/18 18:23:52;;;;;;;3.45;1.10;;;;;;;;;;5117251;27;20947;-73
2023/07/18 18:26:20;;;;;;;5.28;1.38;;;;;;;;;;5116341;27;20090;-73
2023/07/18 18:28:48;;;;;;;6.90;1.60;;;;;;;;;;5120161;27;20823;-74
2023/07/18 18:31:15;;;;;;;5.82;1.42;;;;;;;;;;5116644;27;20106;-74
2023/07/18 18:33:42;;;;;;;6.50;1.50;;;;;;;;;;5117227;27;20576;-74
2023/07/18 18:36:10;;;;;;;4.57;1.38;;;;;;;;;;5116109;27;20044;-74
2023/07/18 18:38:38;;;;;;;2.65;1.00;;;;;;;;;;5119224;27;20048;-72
2023/07/18 18:41:05;;;;;;;4.70;1.10;;;;;;;;;;5099427;27;20040;-72
2023/07/18 18:43:33;;;;;;;3.33;1.10;;;;;;;;;;5116353;27;20875;-73
2023/07/18 18:46:00;;;;;;;4.90;1.25;;;;;;;;;;5121836;27;20600;-72
2023/07/18 18:48:28;;;;;;;2.25;1.00;;;;;;;;;;5121278;27;20055;-72
2023/07/18 18:50:56;;;;;;;3.30;1.00;;;;;;;;;;5118796;27;20044;-73
2023/07/18 18:53:25;;;;;;;4.03;1.10;;;;;;;;;;5118445;27;20796;-72
2023/07/18 18:55:53;;;;;;;3.47;1.20;;;;;;;;;;5115353;27;20076;-73
2023/07/18 18:58:20;;;;;;;1.80;1.00;;;;;;;;;;5118098;27;20043;-72
2023/07/18 19:00:48;;;;;;;4.45;1.38;;;;;;;;;;5121622;27;20047;-72
2023/07/18 19:03:15;;;;;;;2.78;1.05;;;;;;;;;;5124341;27;20036;-72
2023/07/18 19:05:43;;;;;;;3.70;1.25;;;;;;;;;;5121152;27;21270;-73
2023/07/18 19:08:10;;;;;;;4.68;1.25;;;;;;;;;;5116380;27;20040;-73
2023/07/18 19:10:38;;;;;;;2.80;1.27;;;;;;;;;;5121525;27;20040;-75
2023/07/18 19:13:10;;;;;;;4.57;1.10;;;;;;;;;;5095853;27;20062;-73
2023/07/18 19:15:38;;;;;;;6.13;1.30;;;;;;;;;;5119541;27;20044;-73
2023/07/18 19:18:06;;;;;;;9.38;1.20;;;;;;;;;;5119468;27;20512;-73
2023/07/18 19:20:33;;;;;;;4.75;1.10;;;;;;;;;;5116100;27;21070;-73
2023/07/18 19:23:01;;;;;;;5.35;1.25;;;;;;;;;;5125849;27;20052;-73
2023/07/18 19:25:28;;;;;;;5.57;1.35;;;;;;;;;;5116843;27;20052;-73
2023/07/18 19:27:55;;;;;;;4.95;1.15;;;;;;;;;;5125717;27;20059;-73
2023/07/18 19:30:23;;;;;;;3.85;1.40;;;;;;;;;;5124661;27;20047;-74
2023/07/18 19:32:50;;;;;;;4.20;1.50;;;;;;;;;;5115563;27;20097;-74
2023/07/18 19:35:17;;;;;;;3.78;1.38;;;;;;;;;;5120444;27;20048;-73
2023/07/18 19:37:45;;;;;;;3.92;1.33;;;;;;;;;;5117696;27;20055;-73
2023/07/18 19:40:15;;;;;;;4.88;1.42;;;;;;;;;;5118294;27;20115;-73
2023/07/18 19:42:42;;;;;;;3.75;1.33;;;;;;;;;;5124773;27;20055;-73
2023/07/18 19:45:09;;;;;;;6.15;1.60;;;;;;;;;;5123110;27;20044;-73
2023/07/18 19:47:37;;;;;;;7.97;1.30;;;;;;;;;;5125531;27;20056;-72
2023/07/18 19:50:04;;;;;;;6.25;1.58;;;;;;;;;;5118688;27;20595;-72
2023/07/18 19:52:31;;;;;;;3.25;1.40;;;;;;;;;;5121362;27;20180;-73
2023/07/18 19:54:59;;;;;;;8.00;1.50;;;;;;;;;;5116598;27;20763;-73
2023/07/18 19:57:26;;;;;;;7.00;1.40;;;;;;;;;;5120943;27;20143;-73
2023/07/18 19:59:53;;;;;;;5.40;1.38;;;;;;;;;;5126285;27;20044;-73
2023/07/18 20:02:21;;;;;;;2.30;1.10;;;;;;;;;;5119394;27;20083;-73
2023/07/18 20:04:48;;;;;;;2.55;1.10;;;;;;;;;;5129497;27;20110;-73
2023/07/18 20:07:16;;;;;;;5.43;1.33;;;;;;;;;;5120599;27;20105;-72
2023/07/18 20:09:43;;;;;;;3.33;1.33;;;;;;;;;;5121808;27;20178;-73
2023/07/18 20:12:10;;;;;;;4.85;1.40;;;;;;;;;;5126355;27;20480;-73
2023/07/18 20:14:37;;;;;;;3.35;1.10;;;;;;;;;;5120675;27;20044;-73
2023/07/18 20:17:05;;;;;;;5.20;1.13;;;;;;;;;;5117290;27;20051;-73
2023/07/18 20:19:32;;;;;;;3.80;1.48;;;;;;;;;;5124039;27;20543;-73
2023/07/18 20:21:59;;;;;;;4.30;1.13;;;;;;;;;;5123747;27;20101;-73
2023/07/18 20:24:26;;;;;;;3.58;1.40;;;;;;;;;;5123561;27;20102;-73
2023/07/18 20:26:54;;;;;;;5.75;1.25;;;;;;;;;;5134331;27;20052;-73
2023/07/18 20:29:21;;;;;;;2.58;1.10;;;;;;;;;;5121311;27;20047;-73
2023/07/18 20:31:48;;;;;;;4.53;1.50;;;;;;;;;;5120945;27;20054;-73
2023/07/18 20:34:15;;;;;;;3.72;1.20;;;;;;;;;;5121504;27;20047;-73
2023/07/18 20:36:42;;;;;;;5.70;1.95;;;;;;;;;;5120636;27;20043;-73
2023/07/18 20:39:10;;;;;;;3.53;1.40;;;;;;;;;;5124568;27;20583;-73
2023/07/18 20:41:37;;;;;;;4.93;1.42;;;;;;;;;;5121391;27;20078;-73
2023/07/18 20:44:04;;;;;;;6.65;1.40;;;;;;;;;;5123950;27;20390;-74
2023/07/18 20:46:31;;;;;;;3.20;1.63;;;;;;;;;;5124082;27;20051;-72
2023/07/18 20:48:59;;;;;;;3.55;1.73;;;;;;;;;;5119688;27;20056;-72
2023/07/18 20:51:26;;;;;;;3.58;1.50;;;;;;;;;;5100941;27;20942;-73
2023/07/18 20:53:54;;;;;;;10.38;1.63;;;;;;;;;;5118199;27;20594;-72
2023/07/18 20:56:21;;;;;;;7.75;1.80;;;;;;;;;;5119942;27;20051;-72
2023/07/18 20:58:48;;;;;;;4.53;1.48;;;;;;;;;;5119842;27;21311;-73
2023/07/18 21:01:16;;;;;;;7.75;1.60;;;;;;;;;;5117134;27;20056;-73
2023/07/18 21:03:43;;;;;;;4.28;1.73;;;;;;;;;;5112809;27;20815;-73
2023/07/18 21:06:12;;;;;;;3.70;1.60;;;;;;;;;;5119125;27;20134;-73
2023/07/18 21:08:39;;;;;;;5.78;1.80;;;;;;;;;;5115510;27;20043;-73
2023/07/18 21:11:07;;;;;;;6.00;1.73;;;;;;;;;;5112940;27;20668;-73
2023/07/18 21:13:34;;;;;;;9.27;1.90;;;;;;;;;;5115826;27;20105;-73
2023/07/18 21:16:01;;;;;;;4.25;1.63;;;;;;;;;;5112684;27;20048;-72
2023/07/18 21:18:28;;;;;;;4.53;1.50;;;;;;;;;;5112568;27;20082;-75
2023/07/18 21:20:56;;;;;;;2.00;1.38;;;;;;;;;;5119082;27;20137;-72
2023/07/18 21:23:23;;;;;;;4.82;1.95;;;;;;;;;;5119030;27;20151;-73
2023/07/18 21:25:50;;;;;;;5.68;1.52;;;;;;;;;;5103068;27;20536;-74
2023/07/18 21:28:17;;;;;;;6.05;1.52;;;;;;;;;;5109690;27;20052;-73
2023/07/18 21:30:45;;;;;;;3.72;1.90;;;;;;;;;;5099338;27;20104;-73
2023/07/18 21:33:12;;;;;;;7.95;2.45;;;;;;;;;;5117404;27;20058;-74
2023/07/18 21:35:39;;;;;;;5.53;2.10;;;;;;;;;;5118670;27;20071;-74
2023/07/18 21:38:06;;;;;;;5.47;2.00;;;;;;;;;;5120456;27;20064;-73
2023/07/18 21:40:34;;;;;;;3.60;1.90;;;;;;;;;;5119333;27;20048;-73
2023/07/18 21:43:01;;;;;;;5.13;2.22;;;;;;;;;;5117421;27;20052;-74
2023/07/18 21:45:28;;;;;;;8.10;2.10;;;;;;;;;;5117875;27;20052;-74
2023/07/18 21:47:56;;;;;;;6.32;1.90;;;;;;;;;;5115472;27;20142;-74
2023/07/18 21:50:23;;;;;;;6.28;2.55;;;;;;;;;;5108858;27;20097;-73
2023/07/18 21:52:50;;;;;;;4.43;1.95;;;;;;;;;;5113151;27;20488;-73
2023/07/18 21:55:17;;;;;;;5.35;1.98;;;;;;;;;;5113743;27;20062;-74
2023/07/18 21:57:45;;;;;;;6.05;2.00;;;;;;;;;;5124686;27;20056;-74
2023/07/18 22:00:13;;;;;;;5.32;1.95;;;;;;;;;;5127666;27;20512;-74
2023/07/18 22:02:41;;;;;;;3.70;1.95;;;;;;;;;;5102841;27;20047;-73
2023/07/18 22:05:08;;;;;;;5.07;1.80;;;;;;;;;;5103217;27;20052;-73
2023/07/18 22:07:35;;;;;;;5.55;2.00;;;;;;;;;;5119799;27;20045;-74
2023/07/18 22:10:04;;;;;;;6.68;1.95;;;;;;;;;;5116806;27;20412;-74
2023/07/18 22:12:31;;;;;;;3.85;1.75;;;;;;;;;;5114591;27;20518;-74
2023/07/18 22:14:58;;;;;;;3.13;1.80;;;;;;;;;;5117788;27;20048;-74
2023/07/18 22:17:25;;;;;;;5.13;2.20;;;;;;;;;;5119900;27;20062;-73
2023/07/18 22:19:52;;;;;;;3.45;1.70;;;;;;;;;;5118251;27;20059;-74
2023/07/18 22:22:20;;;;;;;3.85;1.77;;;;;;;;;;5086636;27;20174;-74
2023/07/18 22:24:47;;;;;;;3.90;1.80;;;;;;;;;;5090830;27;20473;-74
2023/07/18 22:27:14;;;;;;;8.73;1.90;;;;;;;;;;5099063;27;20063;-74
2023/07/18 22:29:41;;;;;;;6.95;1.88;;;;;;;;;;5100745;27;20058;-74
2023/07/18 22:32:09;;;;;;;7.38;1.63;;;;;;;;;;5100954;27;20124;-74
2023/07/18 22:34:36;;;;;;;3.50;1.55;;;;;;;;;;5101046;27;20126;-74
2023/07/18 22:37:03;;;;;;;3.70;1.55;;;;;;;;;;5100731;27;20071;-74
2023/07/18 22:39:31;;;;;;;3.22;1.55;;;;;;;;;;5101588;27;20047;-74
2023/07/18 22:42:14;;;;;;;5.35;2.03;;;;;;;;;;5100453;27;20090;-74
2023/07/18 22:44:42;;;;;;;10.52;1.58;;;;;;;;;;5100015;27;20056;-74
2023/07/18 22:47:09;;;;;;;3.83;1.70;;;;;;;;;;5100330;27;20052;-74
2023/07/18 22:49:37;;;;;;;6.15;1.88;;;;;;;;;;5080985;27;20048;-74
2023/07/18 22:52:05;;;;;;;3.53;1.85;;;;;;;;;;5101675;27;20059;-74
2023/07/18 22:54:34;;;;;;;4.25;1.75;;;;;;;;;;5122449;27;20580;-74
2023/07/18 22:57:01;;;;;;;2.65;1.60;;;;;;;;;;5115946;27;20627;-74
2023/07/18 22:59:28;;;;;;;3.70;1.70;;;;;;;;;;5118184;27;20544;-74
2023/07/18 23:01:55;;;;;;;4.20;1.90;;;;;;;;;;5120600;27;20386;-74
2023/07/18 23:04:22;;;;;;;7.47;1.65;;;;;;;;;;5116491;27;20048;-74
2023/07/18 23:06:50;;;;;;;3.63;1.65;;;;;;;;;;5121746;27;20086;-74
2023/07/18 23:09:18;;;;;;;3.97;1.70;;;;;;;;;;5121629;27;20564;-74
2023/07/18 23:11:46;;;;;;;4.15;1.55;;;;;;;;;;5104477;27;20175;-74
2023/07/18 23:14:13;;;;;;;4.80;2.17;;;;;;;;;;5121182;27;20058;-73
2023/07/18 23:16:40;;;;;;;5.85;1.92;;;;;;;;;;5117660;27;20129;-74
2023/07/18 23:19:07;;;;;;;4.32;1.90;;;;;;;;;;5101666;27;20584;-74
2023/07/18 23:21:35;;;;;;;5.03;1.70;;;;;;;;;;5102509;27;20047;-74
2023/07/18 23:24:02;;;;;;;4.38;1.90;;;;;;;;;;5109852;27;20051;-74
2023/07/18 23:26:29;;;;;;;4.25;1.98;;;;;;;;;;5113906;27;20077;-74
2023/07/18 23:28:56;;;;;;;4.00;1.80;;;;;;;;;;5130349;27;20047;-74
2023/07/18 23:31:23;;;;;;;4.20;2.20;;;;;;;;;;5121050;27;20075;-74
2023/07/18 23:33:51;;;;;;;3.42;2.00;;;;;;;;;;5124168;27;20054;-74
2023/07/18 23:36:18;;;;;;;6.28;2.10;;;;;;;;;;5119989;27;20051;-74
2023/07/18 23:38:45;;;;;;;7.10;2.05;;;;;;;;;;5121083;27;20050;-74
2023/07/18 23:41:13;;;;;;;4.32;1.85;;;;;;;;;;5115945;27;20140;-74
2023/07/18 23:43:40;;;;;;;2.30;1.70;;;;;;;;;;5120826;27;20051;-73
2023/07/18 23:46:07;;;;;;;3.20;1.83;;;;;;;;;;5125691;27;20053;-73
2023/07/18 23:48:34;;;;;;;5.68;1.90;;;;;;;;;;5103726;27;20633;-74
2023/07/18 23:51:02;;;;;;;4.82;2.03;;;;;;;;;;5116323;27;20044;-74
2023/07/18 23:53:29;;;;;;;4.40;1.98;;;;;;;;;;5121865;27;20062;-74
2023/07/18 23:55:56;;;;;;;5.50;1.98;;;;;;;;;;5115270;27;20048;-74
2023/07/18 23:58:25;;;;;;;5.43;2.05;;;;;;;;;;5118644;27;20048;-74
